createdAt,value
2023-09-27T00:02:00.218Z,72854.09
2023-09-27T00:04:27.649Z,96549.50
2023-09-27T00:06:56.915Z,96547.75
2023-09-27T00:09:23.778Z,96532.19
2023-09-27T00:11:53.868Z,96556.13
2023-09-27T00:14:23.473Z,96547.59
2023-09-27T00:16:51.392Z,96546.13
2023-09-27T00:19:25.703Z,96543.66
2023-09-27T00:21:57.576Z,96545.88
2023-09-27T00:24:26.841Z,96543.00
2023-09-27T00:26:56.156Z,96529.63
2023-09-27T00:29:23.137Z,96534.63
2023-09-27T00:31:50.425Z,96542.75
2023-09-27T00:34:19.875Z,96520.44
2023-09-27T00:36:49.112Z,96516.91
2023-09-27T00:39:20.523Z,96543.72
2023-09-27T00:41:52.303Z,96535.59
2023-09-27T00:44:21.834Z,96521.16
2023-09-27T00:46:55.139Z,96529.28
2023-09-27T00:49:23.082Z,96517.16
2023-09-27T00:51:57.773Z,96543.56
2023-09-27T00:54:24.756Z,96530.25
2023-09-27T00:56:54.843Z,96539.69
2023-09-27T00:59:22.594Z,96534.78
2023-09-27T01:01:53.951Z,96514.84
2023-09-27T01:04:23.302Z,96528.19
2023-09-27T01:06:53.581Z,96527.78
2023-09-27T01:09:22.950Z,96520.66
2023-09-27T01:11:52.558Z,96520.66
2023-09-27T01:14:21.819Z,96525.47
2023-09-27T01:16:53.584Z,96506.88
2023-09-27T01:19:22.683Z,96529.91
2023-09-27T01:21:49.551Z,96522.69
2023-09-27T01:24:20.162Z,96522.50
2023-09-27T01:26:47.279Z,96508.50
2023-09-27T01:29:16.384Z,96509.06
2023-09-27T01:31:43.413Z,96521.63
2023-09-27T01:34:12.753Z,96512.00
2023-09-27T01:36:39.663Z,96488.53
2023-09-27T01:39:08.991Z,96504.44
2023-09-27T01:41:38.306Z,96519.03
2023-09-27T01:44:09.929Z,96517.47
2023-09-27T01:46:40.034Z,96509.47
2023-09-27T01:49:06.931Z,96506.50
2023-09-27T01:51:37.295Z,96505.84
2023-09-27T01:54:06.509Z,96488.13
2023-09-27T01:56:37.924Z,96495.13
2023-09-27T01:59:04.955Z,96500.56
2023-09-27T02:01:37.558Z,96504.91
2023-09-27T02:04:05.689Z,96499.00
2023-09-27T02:06:32.829Z,96475.44
2023-09-27T02:09:05.381Z,96482.47
2023-09-27T02:11:32.625Z,96493.56
2023-09-27T02:14:05.445Z,96486.81
2023-09-27T02:16:35.123Z,96483.06
2023-09-27T02:19:05.634Z,96495.78
2023-09-27T02:21:32.609Z,96496.44
2023-09-27T02:23:59.400Z,96479.72
2023-09-27T02:26:26.296Z,96473.72
2023-09-27T02:28:56.129Z,96507.38
2023-09-27T02:31:28.852Z,96507.25
2023-09-27T02:33:58.227Z,96520.00
2023-09-27T02:36:25.171Z,96501.91
2023-09-27T02:38:52.405Z,96499.50
2023-09-27T02:41:24.271Z,96493.06
2023-09-27T02:43:51.142Z,96501.91
2023-09-27T02:46:20.276Z,96493.69
2023-09-27T02:48:51.970Z,96491.94
2023-09-27T02:51:25.936Z,96497.13
2023-09-27T02:53:55.360Z,96495.66
2023-09-27T02:56:24.785Z,96492.59
2023-09-27T02:58:54.019Z,96495.66
2023-09-27T03:01:23.912Z,96486.66
2023-09-27T03:03:53.467Z,96499.63
2023-09-27T03:06:22.525Z,96475.69
2023-09-27T03:08:52.314Z,96486.66
2023-09-27T03:11:21.695Z,96488.06
2023-09-27T03:13:50.875Z,96502.38
2023-09-27T03:16:23.442Z,96493.59
2023-09-27T03:18:53.432Z,96498.03
2023-09-27T03:21:25.986Z,96511.53
2023-09-27T03:23:54.439Z,96500.63
2023-09-27T03:26:24.071Z,96512.09
2023-09-27T03:28:55.078Z,96523.72
2023-09-27T03:31:22.646Z,96525.59
2023-09-27T03:33:54.550Z,96530.75
2023-09-27T03:36:23.774Z,96524.84
2023-09-27T03:38:51.173Z,96545.72
2023-09-27T03:41:23.351Z,96541.38
2023-09-27T03:43:52.361Z,96547.03
2023-09-27T03:46:21.523Z,96526.41
2023-09-27T03:48:48.496Z,96540.06
2023-09-27T03:51:26.757Z,96541.66
2023-09-27T03:53:55.961Z,96550.63
2023-09-27T03:56:25.380Z,96533.97
2023-09-27T03:58:52.503Z,96531.28
2023-09-27T04:01:19.850Z,96533.78
2023-09-27T04:03:50.973Z,96545.63
2023-09-27T04:06:20.490Z,96531.66
2023-09-27T04:08:49.558Z,96536.19
2023-09-27T04:11:21.489Z,96543.50
2023-09-27T04:13:49.786Z,96519.81
2023-09-27T04:16:19.042Z,96538.84
2023-09-27T04:18:45.971Z,96529.16
2023-09-27T04:21:15.421Z,96534.31
2023-09-27T04:23:44.520Z,96542.38
2023-09-27T04:26:14.005Z,96547.34
2023-09-27T04:28:43.861Z,96550.41
2023-09-27T04:31:10.858Z,96563.88
2023-09-27T04:33:42.402Z,96571.72
2023-09-27T04:36:19.075Z,96568.69
2023-09-27T04:38:49.428Z,96566.28
2023-09-27T04:41:19.455Z,96573.88
2023-09-27T04:43:46.474Z,96562.75
2023-09-27T04:46:18.041Z,96584.13
2023-09-27T04:48:52.272Z,96562.66
2023-09-27T04:51:21.525Z,96575.25
2023-09-27T04:53:53.888Z,96564.03
2023-09-27T04:56:23.202Z,96561.94
2023-09-27T04:58:53.485Z,96559.59
2023-09-27T05:01:20.471Z,96577.06
2023-09-27T05:03:47.421Z,96574.16
2023-09-27T05:06:16.682Z,96580.59
2023-09-27T05:08:45.823Z,96576.16
2023-09-27T05:11:19.926Z,96575.09
2023-09-27T05:13:48.065Z,96582.50
2023-09-27T05:16:17.701Z,96592.56
2023-09-27T05:18:49.055Z,96575.09
2023-09-27T05:21:18.623Z,96591.28
2023-09-27T05:23:48.571Z,96593.63
2023-09-27T05:26:17.712Z,96598.50
2023-09-27T05:28:46.748Z,96599.44
2023-09-27T05:31:13.684Z,96590.19
2023-09-27T05:33:46.575Z,96574.00
2023-09-27T05:36:13.984Z,96575.97
2023-09-27T05:38:48.071Z,96602.13
2023-09-27T05:41:15.344Z,96600.53
2023-09-27T05:43:44.592Z,96600.72
2023-09-27T05:46:13.665Z,96603.78
2023-09-27T05:48:42.814Z,96608.66
2023-09-27T05:51:14.760Z,96583.16
2023-09-27T05:53:53.460Z,96586.22
2023-09-27T05:56:27.202Z,96600.53
2023-09-27T05:59:00.749Z,96594.72
2023-09-27T06:01:30.092Z,96603.88
2023-09-27T06:03:59.503Z,96590.66
2023-09-27T06:06:26.486Z,96598.88
2023-09-27T06:08:56.250Z,96603.31
2023-09-27T06:11:25.294Z,96598.69
2023-09-27T06:13:54.306Z,96605.47
2023-09-27T06:16:21.387Z,96599.28
2023-09-27T06:18:55.295Z,96598.34
2023-09-27T06:21:22.195Z,96606.50
2023-09-27T06:23:51.286Z,96611.75
2023-09-27T06:26:20.657Z,96570.06
2023-09-27T06:28:50.156Z,96622.50
2023-09-27T06:31:19.824Z,96606.50
2023-09-27T06:33:48.292Z,96615.88
2023-09-27T06:36:22.952Z,96619.56
2023-09-27T06:38:54.625Z,96622.28
2023-09-27T06:41:21.725Z,96620.41
2023-09-27T06:43:49.316Z,96630.69
2023-09-27T06:46:18.953Z,96628.19
2023-09-27T06:48:46.097Z,96625.63
2023-09-27T06:51:14.896Z,96616.16
2023-09-27T06:53:44.581Z,96629.91
2023-09-27T06:56:11.668Z,96634.59
2023-09-27T06:58:41.465Z,96637.00
2023-09-27T07:01:11.398Z,96617.66
2023-09-27T07:03:41.669Z,96621.81
2023-09-27T07:06:10.954Z,96617.72
2023-09-27T07:08:40.202Z,96617.91
2023-09-27T07:11:10.707Z,96621.66
2023-09-27T07:13:42.703Z,96629.91
2023-09-27T07:16:30.812Z,96646.50
2023-09-27T07:19:06.996Z,96631.44
2023-09-27T07:21:33.980Z,96623.63
2023-09-27T07:24:04.802Z,96644.50
2023-09-27T07:26:34.184Z,96627.44
2023-09-27T07:29:03.613Z,96623.75
2023-09-27T07:31:36.708Z,96627.88
2023-09-27T07:34:10.974Z,96647.19
2023-09-27T07:36:40.101Z,96633.50
2023-09-27T07:39:12.857Z,96637.56
2023-09-27T07:41:43.275Z,96638.97
2023-09-27T07:44:13.513Z,96635.38
2023-09-27T07:46:42.842Z,96632.13
2023-09-27T07:49:12.088Z,96639.75
2023-09-27T07:51:41.853Z,96635.00
2023-09-27T07:54:16.716Z,96628.06
2023-09-27T07:56:47.197Z,96629.69
2023-09-27T07:59:16.851Z,96615.16
2023-09-27T08:01:46.057Z,96635.34
2023-09-27T08:04:17.337Z,96640.00
2023-09-27T08:06:47.688Z,96645.97
2023-09-27T08:09:38.897Z,96654.28
2023-09-27T08:12:10.058Z,96658.78
2023-09-27T08:14:44.174Z,96641.59
2023-09-27T08:17:13.451Z,96649.09
2023-09-27T08:19:47.840Z,96644.81
2023-09-27T08:22:17.304Z,96656.06
2023-09-27T08:24:50.966Z,96657.81
2023-09-27T08:27:21.233Z,96650.22
2023-09-27T08:29:51.364Z,96643.91
2023-09-27T08:32:20.716Z,96643.47
2023-09-27T08:34:52.460Z,96645.91
2023-09-27T08:37:21.833Z,96639.38
2023-09-27T08:39:53.599Z,96642.81
2023-09-27T08:42:21.542Z,96648.13
2023-09-27T08:44:50.315Z,96643.75
2023-09-27T08:47:21.068Z,96631.66
2023-09-27T08:49:53.397Z,96642.91
2023-09-27T08:52:22.242Z,96624.97
2023-09-27T08:54:51.558Z,96644.00
2023-09-27T08:57:24.859Z,96635.84
2023-09-27T08:59:52.003Z,96631.69
2023-09-27T09:02:25.651Z,96623.09
2023-09-27T09:04:57.258Z,96621.97
2023-09-27T09:07:24.309Z,96626.63
2023-09-27T09:09:55.857Z,96619.63
2023-09-27T09:12:22.686Z,96603.03
2023-09-27T09:14:56.275Z,96597.44
2023-09-27T09:17:35.663Z,96596.84
2023-09-27T09:20:37.633Z,96609.59
2023-09-27T09:23:14.077Z,96611.97
2023-09-27T09:25:46.578Z,96600.56
2023-09-27T09:28:18.858Z,96610.94
2023-09-27T09:30:53.292Z,96614.13
2023-09-27T09:33:38.228Z,96609.22
2023-09-27T09:36:08.069Z,96610.19
2023-09-27T09:38:37.975Z,96611.16
2023-09-27T09:41:04.855Z,96605.56
2023-09-27T09:43:38.541Z,96609.41
2023-09-27T09:46:12.075Z,96587.09
2023-09-27T09:48:42.672Z,96590.09
2023-09-27T09:51:17.260Z,72854.09
2023-09-27T09:53:48.731Z,72854.09
2023-09-27T09:58:59.033Z,72854.09
2023-09-27T10:01:30.082Z,72854.09
2023-09-27T10:04:07.149Z,72854.09
2023-09-27T10:06:48.645Z,72854.09
2023-09-27T10:09:19.756Z,72854.09
2023-09-27T10:11:50.049Z,72854.09
2023-09-27T10:14:20.660Z,72854.09
2023-09-27T10:16:50.143Z,72854.09
2023-09-27T10:19:30.442Z,72854.09
2023-09-27T10:22:09.279Z,72854.09
2023-09-27T10:24:43.216Z,72854.09
2023-09-27T10:27:12.418Z,72854.09
2023-09-27T10:29:59.484Z,72854.09
2023-09-27T10:32:26.730Z,72854.09
2023-09-27T10:34:58.223Z,72854.09
2023-09-27T10:38:07.925Z,72854.09
2023-09-27T10:40:46.365Z,72854.09
2023-09-27T10:43:45.089Z,72854.09
2023-09-27T10:46:14.358Z,72854.09
2023-09-27T10:48:53.327Z,72854.09
2023-09-27T10:51:26.370Z,72854.09
2023-09-27T10:53:56.492Z,96586.03
2023-09-27T10:56:23.493Z,96530.53
2023-09-27T10:58:55.683Z,96528.44
2023-09-27T11:01:25.052Z,96515.41
2023-09-27T11:04:02.542Z,96527.97
2023-09-27T11:06:32.887Z,96509.88
2023-09-27T11:09:07.824Z,96524.63
2023-09-27T11:11:37.683Z,96506.44
2023-09-27T11:14:09.545Z,96499.38
2023-09-27T11:16:41.189Z,96503.19
2023-09-27T11:19:08.888Z,96498.91
2023-09-27T11:21:35.818Z,96498.19
2023-09-27T11:24:07.936Z,96489.56
2023-09-27T11:26:37.614Z,96492.56
2023-09-27T11:29:04.474Z,96481.03
2023-09-27T11:31:35.964Z,96500.84
2023-09-27T11:34:31.764Z,96488.59
2023-09-27T11:37:04.085Z,96487.19
2023-09-27T11:39:48.784Z,96474.19
2023-09-27T11:42:20.854Z,96471.31
2023-09-27T11:45:01.160Z,96469.91
2023-09-27T11:47:28.098Z,96455.41
2023-09-27T11:49:57.319Z,96448.94
2023-09-27T11:52:26.815Z,96452.66
2023-09-27T11:54:58.541Z,96443.97
2023-09-27T11:57:25.629Z,96442.59
2023-09-27T11:59:59.240Z,96432.44
2023-09-27T12:02:40.276Z,96438.34
2023-09-27T12:05:14.523Z,96437.63
2023-09-27T12:07:45.068Z,96427.47
2023-09-27T12:10:17.515Z,96418.78
2023-09-27T12:12:49.852Z,96426.09
2023-09-27T12:15:17.235Z,96407.22
2023-09-27T12:17:44.837Z,96400.63
2023-09-27T12:20:31.461Z,96415.28
2023-09-27T12:23:08.764Z,96402.94
2023-09-27T12:25:41.169Z,96384.00
2023-09-27T12:28:12.798Z,96385.47
2023-09-27T12:30:39.668Z,96389.16
2023-09-27T12:33:13.459Z,96376.81
2023-09-27T12:35:45.348Z,96365.81
2023-09-27T12:38:12.380Z,96376.84
2023-09-27T12:40:44.194Z,96358.63
2023-09-27T12:43:11.816Z,96343.34
2023-09-27T12:45:46.055Z,96345.50
2023-09-27T12:48:15.614Z,96342.59
2023-09-27T12:50:43.116Z,96336.78
2023-09-27T12:53:12.617Z,96336.09
2023-09-27T12:55:43.693Z,96333.91
2023-09-27T12:58:17.867Z,96331.00
2023-09-27T13:00:44.915Z,96331.72
2023-09-27T13:03:14.145Z,96333.19
2023-09-27T13:05:45.980Z,96315.69
2023-09-27T13:08:20.273Z,96319.34
2023-09-27T13:10:47.156Z,96323.69
2023-09-27T13:13:16.484Z,96314.94
2023-09-27T13:15:45.713Z,96299.66
2023-09-27T13:18:17.426Z,96293.81
2023-09-27T13:20:48.961Z,96296.00
2023-09-27T13:23:19.392Z,96303.28
2023-09-27T13:25:59.393Z,96285.78
2023-09-27T13:28:31.019Z,96278.53
2023-09-27T13:30:57.931Z,96288.72
2023-09-27T13:33:27.104Z,96279.22
2023-09-27T13:36:00.406Z,96279.94
2023-09-27T13:38:29.568Z,96277.75
2023-09-27T13:41:02.722Z,96285.03
2023-09-27T13:43:30.076Z,96266.81
2023-09-27T13:46:04.474Z,96263.16
2023-09-27T13:48:35.379Z,96261.00
2023-09-27T13:51:07.043Z,96265.41
2023-09-27T13:53:36.825Z,96259.50
2023-09-27T13:56:04.148Z,96266.09
2023-09-27T13:58:33.406Z,96241.25
2023-09-27T14:01:06.513Z,96258.09
2023-09-27T14:03:33.616Z,96244.25
2023-09-27T14:06:02.902Z,96245.72
2023-09-27T14:08:32.464Z,96258.78
2023-09-27T14:10:59.316Z,96235.50
2023-09-27T14:13:27.780Z,96244.97
2023-09-27T14:15:54.670Z,96253.69
2023-09-27T14:18:21.696Z,96230.41
2023-09-27T14:20:53.425Z,96242.78
2023-09-27T14:23:30.069Z,96225.28
2023-09-27T14:26:01.760Z,96222.38
2023-09-27T14:28:34.496Z,96220.94
2023-09-27T14:31:13.417Z,96205.66
2023-09-27T14:33:40.328Z,96212.94
2023-09-27T14:36:12.158Z,96210.06
2023-09-27T14:38:41.570Z,96210.75
2023-09-27T14:41:13.341Z,96189.63
2023-09-27T14:43:40.683Z,96188.16
2023-09-27T14:46:14.209Z,96191.09
2023-09-27T14:48:45.856Z,96177.97
2023-09-27T14:51:16.439Z,96174.34
2023-09-27T14:53:47.915Z,96183.81
2023-09-27T14:56:19.492Z,96167.78
2023-09-27T14:58:49.177Z,96178.00
2023-09-27T15:01:19.033Z,96183.81
2023-09-27T15:03:50.955Z,96156.09
2023-09-27T15:06:22.750Z,96181.63
2023-09-27T15:08:54.786Z,96176.50
2023-09-27T15:11:30.057Z,96164.09
2023-09-27T15:13:59.660Z,96175.03
2023-09-27T15:16:31.185Z,96177.94
2023-09-27T15:19:06.031Z,96180.84
2023-09-27T15:21:37.730Z,96163.31
2023-09-27T15:24:04.850Z,96182.25
2023-09-27T15:26:38.938Z,96172.78
2023-09-27T15:29:08.524Z,96174.25
2023-09-27T15:31:37.971Z,96147.28
2023-09-27T15:34:07.026Z,96173.50
2023-09-27T15:36:38.459Z,96156.72
2023-09-27T15:39:10.051Z,96161.84
2023-09-27T15:41:39.162Z,96161.84
2023-09-27T15:44:10.645Z,96166.19
2023-09-27T15:46:45.061Z,96164.75
2023-09-27T15:49:14.568Z,96166.19
2023-09-27T15:51:45.500Z,96164.72
2023-09-27T15:54:19.351Z,96163.97
2023-09-27T15:56:46.607Z,96153.03
2023-09-27T15:59:16.147Z,96162.50
2023-09-27T16:01:43.629Z,96158.06
2023-09-27T16:04:15.328Z,96157.38
2023-09-27T16:06:44.777Z,96152.28
2023-09-27T16:09:12.019Z,96150.06
2023-09-27T16:11:42.996Z,96137.69
2023-09-27T16:14:13.869Z,96157.38
2023-09-27T16:16:43.216Z,96150.03
2023-09-27T16:19:12.338Z,96164.63
2023-09-27T16:21:45.126Z,96155.13
2023-09-27T16:24:14.628Z,96165.28
2023-09-27T16:26:46.405Z,96152.88
2023-09-27T16:29:15.738Z,96156.50
2023-09-27T16:31:46.921Z,96164.53
2023-09-27T16:34:18.754Z,96158.69
2023-09-27T16:36:48.033Z,96160.84
2023-09-27T16:39:19.986Z,96160.09
2023-09-27T16:41:50.405Z,96149.19
2023-09-27T16:44:21.875Z,96152.78
2023-09-27T16:46:51.165Z,96161.50
2023-09-27T16:49:18.059Z,96168.00
2023-09-27T16:51:47.580Z,96154.19
2023-09-27T16:54:16.765Z,96161.41
2023-09-27T16:56:43.589Z,96159.88
2023-09-27T16:59:11.459Z,96156.94
2023-09-27T17:01:40.793Z,96161.22
2023-09-27T17:04:09.069Z,96150.97
2023-09-27T17:06:39.223Z,96163.34
2023-09-27T17:09:11.852Z,96162.47
2023-09-27T17:11:46.262Z,96154.47
2023-09-27T17:14:13.224Z,96175.53
2023-09-27T17:16:41.164Z,96169.63
2023-09-27T17:19:10.356Z,96183.41
2023-09-27T17:21:42.067Z,96181.88
2023-09-27T17:24:11.705Z,96178.19
2023-09-27T17:26:39.905Z,96167.13
2023-09-27T17:29:09.355Z,96200.53
2023-09-27T17:31:41.711Z,96181.56
2023-09-27T17:34:13.578Z,96182.16
2023-09-27T17:36:47.725Z,96182.13
2023-09-27T17:39:17.136Z,96185.66
2023-09-27T17:41:47.774Z,96202.34
2023-09-27T17:44:19.574Z,96203.69
2023-09-27T17:46:48.648Z,96200.72
2023-09-27T17:49:17.737Z,96194.06
2023-09-27T17:51:49.257Z,96202.03
2023-09-27T17:54:16.189Z,96191.72
2023-09-27T17:56:47.939Z,96205.53
2023-09-27T17:59:20.036Z,96217.78
2023-09-27T18:01:48.130Z,96204.66
2023-09-27T18:04:17.285Z,96203.19
2023-09-27T18:06:51.124Z,96218.31
2023-09-27T18:09:25.975Z,96208.72
2023-09-27T18:11:57.372Z,96216.03
2023-09-27T18:14:25.372Z,96223.19
2023-09-27T18:16:52.273Z,96215.78
2023-09-27T18:19:24.093Z,96220.13
2023-09-27T18:21:53.251Z,96210.56
2023-09-27T18:24:22.409Z,96224.34
2023-09-27T18:26:51.819Z,96213.97
2023-09-27T18:29:23.090Z,96219.78
2023-09-27T18:31:57.089Z,96216.81
2023-09-27T18:34:25.836Z,96216.72
2023-09-27T18:36:52.716Z,96207.22
2023-09-27T18:39:21.975Z,96212.84
2023-09-27T18:41:58.248Z,96209.19
2023-09-27T18:44:29.885Z,96218.53
2023-09-27T18:46:56.860Z,96224.22
2023-09-27T18:49:30.078Z,96211.84
2023-09-27T18:51:58.136Z,96217.56
2023-09-27T18:54:27.620Z,96210.22
2023-09-27T18:56:56.771Z,96209.38
2023-09-27T18:59:27.198Z,96209.22
2023-09-27T19:01:58.898Z,96210.59
2023-09-27T19:04:25.976Z,96206.19
2023-09-27T19:06:55.257Z,96204.66
2023-09-27T19:09:22.482Z,96213.97
2023-09-27T19:11:54.590Z,96211.00
2023-09-27T19:14:29.143Z,96208.69
2023-09-27T19:16:58.563Z,96212.31
2023-09-27T19:19:29.762Z,96210.81
2023-09-27T19:21:56.531Z,96219.44
2023-09-27T19:24:34.615Z,96212.84
2023-09-27T19:27:03.822Z,96218.50
2023-09-27T19:29:33.522Z,96217.00
2023-09-27T19:32:05.377Z,96219.84
2023-09-27T19:34:37.492Z,96224.78
2023-09-27T19:37:11.178Z,96229.72
2023-09-27T19:39:40.608Z,96229.69
2023-09-27T19:42:09.718Z,96217.97
2023-09-27T19:44:43.527Z,96226.00
2023-09-27T19:47:15.205Z,96231.75
2023-09-27T19:49:42.221Z,96220.75
2023-09-27T19:52:12.204Z,96229.56
2023-09-27T19:54:39.269Z,96230.22
2023-09-27T19:57:11.007Z,96234.53
2023-09-27T19:59:43.067Z,96220.59
2023-09-27T20:02:13.079Z,96230.78
2023-09-27T20:04:44.387Z,96235.06
2023-09-27T20:07:11.306Z,96236.38
2023-09-27T20:09:38.154Z,96250.16
2023-09-27T20:12:07.647Z,96244.31
2023-09-27T20:14:41.721Z,96226.13
2023-09-27T20:17:08.769Z,96234.81
2023-09-27T20:19:42.775Z,96244.88
2023-09-27T20:22:14.461Z,96239.88
2023-09-27T20:24:43.884Z,96260.06
2023-09-27T20:27:12.927Z,96248.28
2023-09-27T20:29:44.946Z,96256.78
2023-09-27T20:32:14.092Z,96263.88
2023-09-27T20:34:44.208Z,96258.06
2023-09-27T20:37:11.328Z,96250.69
2023-09-27T20:39:40.100Z,96255.13
2023-09-27T20:42:11.763Z,96252.19
2023-09-27T20:44:45.626Z,96263.66
2023-09-27T20:47:15.769Z,96265.81
2023-09-27T20:49:47.369Z,96261.38
2023-09-27T20:52:21.588Z,96264.94
2023-09-27T20:54:48.435Z,96260.47
2023-09-27T20:57:15.380Z,96265.44
2023-09-27T20:59:44.429Z,96259.56
2023-09-27T21:02:14.090Z,96270.34
2023-09-27T21:04:41.103Z,96271.06
2023-09-27T21:07:14.848Z,96252.75
2023-09-27T21:09:41.698Z,96255.56
2023-09-27T21:12:13.139Z,96267.22
2023-09-27T21:14:44.545Z,96264.16
2023-09-27T21:17:14.490Z,96248.72
2023-09-27T21:19:47.712Z,96259.03
2023-09-27T21:22:15.674Z,96258.97
2023-09-27T21:24:42.459Z,96256.03
2023-09-27T21:27:12.623Z,96255.16
2023-09-27T21:29:44.023Z,96250.69
2023-09-27T21:32:15.728Z,96252.75
2023-09-27T21:34:49.975Z,96254.88
2023-09-27T21:37:21.519Z,96251.09
2023-09-27T21:39:50.601Z,96250.47
2023-09-27T21:42:24.638Z,96247.53
2023-09-27T21:44:58.777Z,96245.34
2023-09-27T21:47:28.758Z,96234.50
2023-09-27T21:49:55.644Z,96235.81
2023-09-27T21:52:26.165Z,96237.94
2023-09-27T21:55:00.332Z,96242.16
2023-09-27T21:57:29.593Z,96242.06
2023-09-27T22:00:01.001Z,96232.56
2023-09-27T22:02:28.036Z,96227.22
2023-09-27T22:05:00.121Z,96233.13
2023-09-27T22:07:27.204Z,96223.47
2023-09-27T22:09:56.314Z,96234.38
2023-09-27T22:12:23.159Z,96230.59
2023-09-27T22:14:54.855Z,96226.25
2023-09-27T22:17:24.976Z,96222.66
2023-09-27T22:19:52.175Z,96213.03
2023-09-27T22:22:28.589Z,96228.31
2023-09-27T22:25:02.582Z,96231.06
2023-09-27T22:27:31.713Z,96231.00
2023-09-27T22:30:01.158Z,96227.38
2023-09-27T22:32:32.824Z,96218.53
2023-09-27T22:35:02.716Z,96232.88
2023-09-27T22:37:33.390Z,96227.16
2023-09-27T22:40:15.640Z,96227.81
2023-09-27T22:42:54.330Z,96221.22
2023-09-27T22:45:30.852Z,96223.41
2023-09-27T22:48:01.274Z,96231.16
2023-09-27T22:50:46.979Z,96226.19
2023-09-27T22:53:22.688Z,96216.59
2023-09-27T22:55:59.603Z,96215.78
2023-09-27T22:58:28.580Z,96233.88
2023-09-27T23:01:20.633Z,96225.19
2023-09-27T23:03:55.361Z,96225.56
2023-09-27T23:06:30.775Z,96226.38
2023-09-27T23:09:01.569Z,96220.53
2023-09-27T23:11:42.147Z,96218.28
2023-09-27T23:14:12.806Z,96219.09
2023-09-27T23:16:47.651Z,96227.09
2023-09-27T23:19:19.526Z,96235.66
2023-09-27T23:21:49.639Z,96224.56
2023-09-27T23:24:22.418Z,96231.19
2023-09-27T23:27:00.737Z,96218.03
2023-09-27T23:29:30.234Z,96220.16
2023-09-27T23:32:05.732Z,96208.47
2023-09-27T23:34:38.589Z,96230.28
2023-09-27T23:37:10.439Z,96231.63
2023-09-27T23:39:48.735Z,96217.59
2023-09-27T23:42:27.565Z,96208.03
2023-09-27T23:45:03.189Z,96240.19
2023-09-27T23:47:39.052Z,96239.41
2023-09-27T23:50:18.149Z,96242.94
2023-09-27T23:52:46.903Z,96232.50
2023-09-27T23:55:21.862Z,96247.25
2023-09-27T23:57:49.193Z,96242.94
